Time;durP1;ratioP1;P1;durP2;ratioP2;P2;SDS_P1;SDS_P2;PMS_P1;PMS_P2;Temp;Humidity;BMP_temperature;BMP_pressure;BME280_temperature;BME280_humidity;BME280_pressure;Samples;Min_cycle;Max_cycle;Signal;HPM_P1;HPM_P2
2022/04/07 00:01:24;;;;;;;;;;;;;;;24.87;36.68;93076.25;4918556;29;9073;-87
2022/04/07 00:03:55;;;;;;;;;;;;;;;24.93;36.89;93078.88;4918486;29;6941;-87
2022/04/07 00:06:33;;;;;;;;;;;;;;;24.94;36.91;93088.59;4929436;29;8811;-87
2022/04/07 00:09:02;;;;;;;;;;;;;;;24.93;36.33;93081.63;4925692;29;9018;-87
2022/04/07 00:11:30;;;;;;;;;;;;;;;24.94;36.74;93080.34;4934945;29;8709;-87
2022/04/07 00:13:56;;;;;;;;;;;;;;;24.95;36.29;93081.81;4920813;29;8743;-88
2022/04/07 00:16:25;;;;;;;;;;;;;;;24.95;37.03;93092.81;4913673;29;8713;-88
2022/04/07 00:18:57;;;;;;;;;;;;;;;24.95;36.83;93081.81;4910079;29;9085;-88
2022/04/07 00:21:35;;;;;;;;;;;;;;;24.94;36.88;93083.09;4917950;29;9220;-88
2022/04/07 00:24:05;;;;;;;;;;;;;;;24.93;36.96;93076.13;4908407;29;7259;-87
2022/04/07 00:26:33;;;;;;;;;;;;;;;24.94;36.91;93083.09;4931280;29;8799;-88
2022/04/07 00:29:00;;;;;;;;;;;;;;;24.92;36.49;93071.91;4945673;28;9018;-88
2022/04/07 00:31:27;;;;;;;;;;;;;;;24.93;37.09;93079.59;4946703;28;8988;-88
2022/04/07 00:34:03;;;;;;;;;;;;;;;24.93;36.40;93073.38;4939495;28;7448;-88
2022/04/07 00:36:29;;;;;;;;;;;;;;;24.84;36.56;93060.09;4946470;28;8820;-89
2022/04/07 00:38:55;;;;;;;;;;;;;;;24.90;36.52;93066.94;4950208;28;6841;-88
2022/04/07 00:41:23;;;;;;;;;;;;;;;24.83;35.89;93055.88;4943657;28;8709;-88
2022/04/07 00:44:03;;;;;;;;;;;;;;;24.93;36.17;93067.84;4932647;29;8574;-88
2022/04/07 00:46:33;;;;;;;;;;;;;;;24.88;36.70;93057.75;4953769;28;9604;-88
2022/04/07 00:49:00;;;;;;;;;;;;;;;24.86;36.68;93063.06;4961857;28;6978;-88
2022/04/07 00:51:27;;;;;;;;;;;;;;;24.84;36.47;93044.31;4956650;28;7119;-88
2022/04/07 00:53:53;;;;;;;;;;;;;;;24.87;36.30;93059.75;4940222;28;8719;-88
2022/04/07 00:56:20;;;;;;;;;;;;;;;24.86;36.78;93069.28;4960606;28;9011;-88
2022/04/07 00:58:57;;;;;;;;;;;;;;;24.89;36.67;93067.47;4938594;29;7125;-88
2022/04/07 01:01:28;;;;;;;;;;;;;;;24.92;36.36;93069.16;4937794;29;10203;-88
2022/04/07 01:03:59;;;;;;;;;;;;;;;24.86;36.59;93065.81;4941258;29;7218;-88
2022/04/07 01:06:25;;;;;;;;;;;;;;;24.92;36.87;93066.41;4938049;28;7245;-88
2022/04/07 01:09:01;;;;;;;;;;;;;;;24.92;36.53;93074.66;4929687;29;9805;-88
2022/04/07 01:11:37;;;;;;;;;;;;;;;24.90;36.53;93064.19;4953928;29;9625;-88
2022/04/07 01:14:11;;;;;;;;;;;;;;;24.90;36.62;93063.44;4936636;29;9107;-88
2022/04/07 01:16:39;;;;;;;;;;;;;;;24.81;36.70;93050.16;4952579;28;9021;-88
2022/04/07 01:19:14;;;;;;;;;;;;;;;24.83;36.34;93059.38;4939069;29;8896;-88
2022/04/07 01:21:47;;;;;;;;;;;;;;;24.89;36.71;93059.22;4954337;29;9054;-88
2022/04/07 01:24:18;;;;;;;;;;;;;;;24.87;36.16;93062.50;4942336;29;8900;-88
2022/04/07 01:26:46;;;;;;;;;;;;;;;24.85;36.89;93062.31;4931715;29;8710;-88
2022/04/07 01:29:19;;;;;;;;;;;;;;;24.89;36.57;93048.22;4937755;29;7542;-87
2022/04/07 01:31:45;;;;;;;;;;;;;;;24.90;36.74;93063.44;4937533;29;7221;-88
2022/04/07 01:34:15;;;;;;;;;;;;;;;24.86;36.10;93063.78;4945061;29;7481;-88
2022/04/07 01:36:47;;;;;;;;;;;;;;;24.83;36.50;93055.88;4953164;28;6941;-88
2022/04/07 01:39:25;;;;;;;;;;;;;;;24.82;36.74;93054.38;4938005;29;9315;-88
2022/04/07 01:41:57;;;;;;;;;;;;;;;24.83;36.35;93045.63;4949726;29;7539;-88
2022/04/07 01:44:33;;;;;;;;;;;;;;;24.80;36.10;93043.19;4937415;29;8866;-88
2022/04/07 01:47:25;;;;;;;;;;;;;;;24.82;36.84;93051.63;4956719;28;8733;-88
2022/04/07 01:50:03;;;;;;;;;;;;;;;24.84;37.21;93069.06;4895063;29;8072;-87
2022/04/07 01:52:37;;;;;;;;;;;;;;;24.84;36.68;93060.09;4900852;29;7118;-88
2022/04/07 01:55:04;;;;;;;;;;;;;;;24.79;36.35;93058.97;4891170;29;9072;-88
2022/04/07 01:57:49;;;;;;;;;;;;;;;24.84;36.48;93065.59;4911905;29;8588;-88
2022/04/07 02:00:28;;;;;;;;;;;;;;;24.84;36.73;93069.06;4914636;29;9038;-88
2022/04/07 02:03:05;;;;;;;;;;;;;;;24.81;36.40;93080.41;4885554;29;7461;-87
2022/04/07 02:05:37;;;;;;;;;;;;;;;24.78;36.91;93067.72;4912636;29;8722;-88
2022/04/07 02:08:06;;;;;;;;;;;;;;;24.81;36.44;93078.41;4916141;29;8723;-88
2022/04/07 02:10:32;;;;;;;;;;;;;;;24.80;36.58;93070.69;4918160;29;7235;-88
2022/04/07 02:13:01;;;;;;;;;;;;;;;24.81;36.63;93083.91;4901701;29;8925;-88
2022/04/07 02:15:29;;;;;;;;;;;;;;;24.81;36.78;93074.91;4892803;29;9021;-88
2022/04/07 02:18:04;;;;;;;;;;;;;;;24.82;36.39;93079.88;4911561;29;9199;-88
2022/04/07 02:20:42;;;;;;;;;;;;;;;24.81;36.92;93075.66;4900114;29;8697;-88
2022/04/07 02:23:07;;;;;;;;;;;;;;;24.79;36.67;93066.47;4909964;29;7034;-88
2022/04/07 02:25:33;;;;;;;;;;;;;;;24.80;36.50;93074.19;4903204;28;9027;-88
2022/04/07 02:27:59;;;;;;;;;;;;;;;24.81;36.38;93072.16;4954949;28;8811;-88
2022/04/07 02:30:28;;;;;;;;;;;;;;;24.82;36.37;93068.88;4956026;28;8736;-88
2022/04/07 02:32:53;;;;;;;;;;;;;;;24.79;36.47;93061.72;4957518;28;7730;-88
2022/04/07 02:35:19;;;;;;;;;;;;;;;24.79;37.09;93069.22;4942443;28;9242;-88
2022/04/07 02:37:47;;;;;;;;;;;;;;;24.80;36.55;93076.94;4948772;28;7275;-88
2022/04/07 02:40:13;;;;;;;;;;;;;;;24.71;36.11;93058.84;4940282;28;7363;-88
2022/04/07 02:42:39;;;;;;;;;;;;;;;24.76;36.39;93070.28;4940790;28;8999;-88
2022/04/07 02:45:06;;;;;;;;;;;;;;;24.77;36.41;93071.78;4949166;28;7177;-87
2022/04/07 02:47:41;;;;;;;;;;;;;;;24.81;36.57;93075.66;4937159;28;9025;-88
2022/04/07 02:50:08;;;;;;;;;;;;;;;24.81;36.17;93077.66;4956652;28;8989;-88
2022/04/07 02:52:50;;;;;;;;;;;;;;;24.81;36.59;93083.16;4961320;28;7285;-87
2022/04/07 02:55:24;;;;;;;;;;;;;;;24.73;36.06;93077.56;4950247;28;9106;-87
2022/04/07 02:57:50;;;;;;;;;;;;;;;24.79;36.57;93074.72;4941678;28;9147;-88
2022/04/07 03:00:17;;;;;;;;;;;;;;;24.70;36.72;93062.91;4955502;28;7270;-88
2022/04/07 03:02:46;;;;;;;;;;;;;;;24.77;36.97;93061.53;4940483;28;9039;-88
2022/04/07 03:05:12;;;;;;;;;;;;;;;24.71;36.67;93058.84;4939550;28;7036;-88
2022/04/07 03:07:40;;;;;;;;;;;;;;;24.79;36.28;93058.22;4956196;28;9006;-88
2022/04/07 03:10:20;;;;;;;;;;;;;;;24.77;36.52;93056.03;4949856;28;8666;-88
2022/04/07 03:12:50;;;;;;;;;;;;;;;24.76;36.69;93065.53;4956214;28;8748;-88
2022/04/07 03:15:17;;;;;;;;;;;;;;;24.79;36.09;93058.22;4957952;28;9289;-88
2022/04/07 03:17:44;;;;;;;;;;;;;;;24.73;36.91;93054.84;4939969;28;9013;-88
2022/04/07 03:20:21;;;;;;;;;;;;;;;24.77;36.56;93044.28;4940043;28;9093;-88
2022/04/07 03:22:55;;;;;;;;;;;;;;;24.74;36.72;93029.56;4942636;28;8810;-88
2022/04/07 03:25:24;;;;;;;;;;;;;;;24.75;36.67;93047.53;4949198;28;7049;-88
2022/04/07 03:27:52;;;;;;;;;;;;;;;24.73;36.57;93028.06;4954995;28;7439;-88
2022/04/07 03:30:18;;;;;;;;;;;;;;;24.70;36.92;93021.66;4944776;28;8612;-88
2022/04/07 03:32:44;;;;;;;;;;;;;;;24.71;36.58;93020.38;4951355;28;9167;-87
2022/04/07 03:35:12;;;;;;;;;;;;;;;24.65;36.61;93036.28;4946263;28;8972;-87
2022/04/07 03:37:48;;;;;;;;;;;;;;;24.70;36.45;93015.41;4939007;28;8825;-88
2022/04/07 03:40:14;;;;;;;;;;;;;;;24.69;36.59;93014.66;4948225;28;8728;-88
2022/04/07 03:42:40;;;;;;;;;;;;;;;24.63;36.38;93019.56;4939799;28;8713;-88
2022/04/07 03:45:07;;;;;;;;;;;;;;;24.69;36.92;93019.44;4939489;28;8868;-88
2022/04/07 03:47:40;;;;;;;;;;;;;;;24.68;36.22;93021.44;4944451;28;8724;-88
2022/04/07 03:50:11;;;;;;;;;;;;;;;24.68;36.26;93028.97;4939094;28;9149;-88
2022/04/07 03:52:40;;;;;;;;;;;;;;;24.67;36.49;93013.72;4965306;28;7269;-88
2022/04/07 03:55:20;;;;;;;;;;;;;;;24.68;36.68;93020.72;4947170;28;8720;-87
2022/04/07 03:57:49;;;;;;;;;;;;;;;24.66;36.28;93034.25;4939168;28;8821;-88
2022/04/07 04:00:19;;;;;;;;;;;;;;;24.66;36.55;93023.97;4962549;28;9310;-88
2022/04/07 04:02:50;;;;;;;;;;;;;;;24.68;36.05;93009.72;4929569;28;8765;-87
2022/04/07 04:05:19;;;;;;;;;;;;;;;24.64;36.70;92993.53;4939393;28;8814;-89
2022/04/07 04:08:26;;;;;;;;;;;;;;;24.67;36.44;92992.47;4932995;28;9043;-88
2022/04/07 04:10:59;;;;;;;;;;;;;;;24.66;36.48;92988.25;4919073;29;8191;-88
2022/04/07 04:13:36;;;;;;;;;;;;;;;24.65;36.95;92984.03;4934170;29;8787;-88
2022/04/07 04:16:09;;;;;;;;;;;;;;;24.58;36.78;92970.97;4931031;29;9069;-88
2022/04/07 04:18:45;;;;;;;;;;;;;;;24.65;36.07;92984.03;4925387;29;7032;-88
2022/04/07 04:21:11;;;;;;;;;;;;;;;24.65;36.61;92978.53;4928868;29;8776;-88
2022/04/07 04:23:38;;;;;;;;;;;;;;;24.63;36.64;92963.84;4916643;29;8746;-88
2022/04/07 04:26:04;;;;;;;;;;;;;;;24.64;36.52;92968.81;4925832;29;9441;-87
2022/04/07 04:28:33;;;;;;;;;;;;;;;24.64;36.52;92971.56;4909498;29;9052;-88
2022/04/07 04:30:59;;;;;;;;;;;;;;;24.62;36.54;92974.09;4921682;29;8804;-86
2022/04/07 04:33:26;;;;;;;;;;;;;;;24.64;36.84;92966.06;4916991;29;9070;-86
2022/04/07 04:36:02;;;;;;;;;;;;;;;24.63;36.27;92975.59;4931189;29;9034;-88
2022/04/07 04:38:31;;;;;;;;;;;;;;;24.62;37.68;92954.84;4924095;29;8666;-88
2022/04/07 04:41:08;;;;;;;;;;;;;;;24.65;36.90;92969.53;4917857;29;8637;-88
2022/04/07 04:43:44;;;;;;;;;;;;;;;24.64;36.72;92963.31;4926513;29;9230;-87
2022/04/07 04:46:10;;;;;;;;;;;;;;;24.67;36.62;92964.97;4956492;28;7278;-87
2022/04/07 04:48:38;;;;;;;;;;;;;;;24.65;36.44;92962.03;4944215;28;9074;-85
2022/04/07 04:51:14;;;;;;;;;;;;;;;24.67;36.81;92969.75;4947757;28;9107;-87
2022/04/07 04:53:46;;;;;;;;;;;;;;;24.66;36.12;92979.28;4959948;28;9000;-87
2022/04/07 04:56:17;;;;;;;;;;;;;;;24.65;36.04;92973.03;4942435;28;8752;-86
2022/04/07 04:58:45;;;;;;;;;;;;;;;24.64;36.33;92973.59;4937650;29;9001;-87
2022/04/07 05:01:12;;;;;;;;;;;;;;;24.60;36.29;92971.16;4946444;28;9108;-87
2022/04/07 05:03:52;;;;;;;;;;;;;;;24.64;36.68;92960.56;4938336;29;8951;-87
2022/04/07 05:06:20;;;;;;;;;;;;;;;24.68;36.18;92966.44;4960566;28;8610;-87
2022/04/07 05:08:57;;;;;;;;;;;;;;;24.63;35.95;92959.09;4937153;29;6996;-87
2022/04/07 05:11:24;;;;;;;;;;;;;;;24.66;36.24;92960.03;4950689;29;8729;-87
2022/04/07 05:13:54;;;;;;;;;;;;;;;24.63;36.13;92956.34;4939075;29;8807;-87
2022/04/07 05:16:46;;;;;;;;;;;;;;;24.64;36.25;92963.31;4938223;29;9018;-87
2022/04/07 05:19:14;;;;;;;;;;;;;;;24.63;35.77;92959.09;4914741;29;8616;-87
2022/04/07 05:21:49;;;;;;;;;;;;;;;24.64;36.14;92955.06;4932046;29;8799;-86
2022/04/07 05:24:17;;;;;;;;;;;;;;;24.59;36.55;92958.69;4916005;29;8613;-87
2022/04/07 05:26:44;;;;;;;;;;;;;;;24.62;36.57;92960.34;4933005;29;9034;-87
2022/04/07 05:29:10;;;;;;;;;;;;;;;24.64;36.45;92955.06;4932457;29;6978;-86
2022/04/07 05:31:45;;;;;;;;;;;;;;;24.65;36.08;92951.03;4932465;29;8707;-87
2022/04/07 05:34:16;;;;;;;;;;;;;;;24.63;37.36;92945.34;4920125;29;8306;-87
2022/04/07 05:36:52;;;;;;;;;;;;;;;24.63;36.38;92937.09;4922534;28;8838;-87
2022/04/07 05:39:23;;;;;;;;;;;;;;;24.64;36.57;92943.34;4926633;29;9182;-87
2022/04/07 05:41:48;;;;;;;;;;;;;;;24.56;36.31;92926.78;4921211;29;7300;-87
2022/04/07 05:44:15;;;;;;;;;;;;;;;24.65;36.32;92940.03;4929024;29;7028;-87
2022/04/07 05:46:46;;;;;;;;;;;;;;;24.65;36.34;92937.28;4927161;29;8863;-87
2022/04/07 05:49:13;;;;;;;;;;;;;;;24.65;36.58;92934.56;4929868;28;9024;-87
2022/04/07 05:51:39;;;;;;;;;;;;;;;24.63;36.38;92928.09;4916764;29;9009;-87
2022/04/07 05:54:07;;;;;;;;;;;;;;;24.64;36.72;92938.56;4914051;29;8869;-87
2022/04/07 05:56:34;;;;;;;;;;;;;;;24.59;35.82;92930.47;4934121;28;7216;-87
2022/04/07 05:59:06;;;;;;;;;;;;;;;24.64;35.72;92937.84;4950081;28;7316;-87
2022/04/07 06:01:33;;;;;;;;;;;;;;;24.62;35.83;92930.13;4955214;28;8722;-87
2022/04/07 06:04:08;;;;;;;;;;;;;;;24.63;35.27;92931.59;4941676;28;8791;-87
2022/04/07 06:06:41;;;;;;;;;;;;;;;24.63;35.26;92931.59;4966295;28;9093;-87
2022/04/07 06:09:13;;;;;;;;;;;;;;;24.62;34.87;92932.16;4955339;28;8845;-87
2022/04/07 06:11:43;;;;;;;;;;;;;;;24.62;33.99;92923.91;4939579;28;8988;-87
2022/04/07 06:14:10;;;;;;;;;;;;;;;24.61;33.95;92920.41;4941043;28;9037;-86
2022/04/07 06:16:37;;;;;;;;;;;;;;;24.52;34.49;92909.91;4949612;28;7149;-87
2022/04/07 06:19:07;;;;;;;;;;;;;;;24.58;34.64;92915.97;4946069;28;7042;-86
2022/04/07 06:21:36;;;;;;;;;;;;;;;24.59;35.11;92909.22;4947775;28;8613;-86
2022/04/07 06:24:05;;;;;;;;;;;;;;;24.50;35.18;92901.47;4945966;28;8743;-86
2022/04/07 06:26:31;;;;;;;;;;;;;;;24.58;34.82;92899.50;4947644;28;7084;-86
2022/04/07 06:28:59;;;;;;;;;;;;;;;24.58;35.28;92902.25;4953426;28;7235;-86
2022/04/07 06:31:32;;;;;;;;;;;;;;;24.58;34.87;92898.75;4942027;28;9748;-87
2022/04/07 06:34:27;;;;;;;;;;;;;;;24.55;36.09;92897.09;4951145;28;9205;-86
2022/04/07 06:37:03;;;;;;;;;;;;;;;24.59;35.55;92906.47;4941056;28;9094;-86
2022/04/07 06:39:32;;;;;;;;;;;;;;;24.58;35.02;92902.25;4941228;28;7263;-86
2022/04/07 06:42:08;;;;;;;;;;;;;;;24.60;35.91;92899.69;4938702;28;8723;-87
2022/04/07 06:44:45;;;;;;;;;;;;;;;24.62;35.58;92891.63;4951457;28;8765;-87
2022/04/07 06:47:13;;;;;;;;;;;;;;;24.63;35.83;92893.13;4946424;28;9010;-87
2022/04/07 06:49:50;;;;;;;;;;;;;;;24.62;36.30;92888.16;4953862;28;7052;-87
2022/04/07 06:52:18;;;;;;;;;;;;;;;24.65;35.95;92882.31;4940620;28;8715;-86
2022/04/07 06:54:45;;;;;;;;;;;;;;;24.61;36.28;92876.44;4942252;28;7603;-86
2022/04/07 06:57:12;;;;;;;;;;;;;;;24.62;36.15;92882.66;4950698;28;7476;-86
2022/04/07 06:59:40;;;;;;;;;;;;;;;24.63;35.88;92873.13;4947193;28;7977;-87
2022/04/07 07:02:16;;;;;;;;;;;;;;;24.57;35.71;92856.81;4951683;28;7070;-86
2022/04/07 07:04:42;;;;;;;;;;;;;;;24.53;35.71;92841.94;4943408;28;8872;-87
2022/04/07 07:07:17;;;;;;;;;;;;;;;24.63;36.11;92865.63;4938187;28;9056;-86
2022/04/07 07:09:43;;;;;;;;;;;;;;;24.60;36.29;92846.72;4930002;28;8739;-87
2022/04/07 07:12:18;;;;;;;;;;;;;;;24.63;36.20;92838.13;4938149;28;8988;-87
2022/04/07 07:14:52;;;;;;;;;;;;;;;24.64;36.30;92845.09;4954945;28;9019;-86
2022/04/07 07:17:22;;;;;;;;;;;;;;;24.66;36.23;92839.78;4943489;28;9059;-86
2022/04/07 07:20:04;;;;;;;;;;;;;;;24.64;36.13;92827.88;4940376;28;8776;-87
2022/04/07 07:22:31;;;;;;;;;;;;;;;24.67;36.09;92827.53;4938336;28;7185;-86
2022/04/07 07:24:57;;;;;;;;;;;;;;;24.63;36.19;92813.41;4955766;28;9133;-86
2022/04/07 07:27:26;;;;;;;;;;;;;;;24.68;36.34;92817.97;4957446;28;8852;-86
2022/04/07 07:29:52;;;;;;;;;;;;;;;24.64;36.29;92817.59;4941064;28;8691;-86
2022/04/07 07:32:19;;;;;;;;;;;;;;;24.68;36.34;92817.28;4955732;28;9157;-87
2022/04/07 07:34:47;;;;;;;;;;;;;;;24.69;36.83;92819.47;4939771;28;8726;-87
2022/04/07 07:37:17;;;;;;;;;;;;;;;24.66;36.43;92806.78;4946225;28;7013;-86
2022/04/07 07:40:00;;;;;;;;;;;;;;;24.69;36.70;92810.47;4937665;28;7273;-87
2022/04/07 07:42:36;;;;;;;;;;;;;;;24.69;36.40;92802.97;4952698;28;7324;-87
2022/04/07 07:45:03;;;;;;;;;;;;;;;24.68;36.90;92817.28;4954894;28;9019;-86
2022/04/07 07:47:36;;;;;;;;;;;;;;;24.69;36.38;92819.47;4953496;28;7197;-87
2022/04/07 07:50:08;;;;;;;;;;;;;;;24.71;36.65;92807.91;4953848;28;8814;-86
2022/04/07 07:52:35;;;;;;;;;;;;;;;24.68;36.50;92796.00;4940753;28;8724;-87
2022/04/07 07:55:01;;;;;;;;;;;;;;;24.66;36.45;92804.03;4952914;28;8707;-86
2022/04/07 07:57:34;;;;;;;;;;;;;;;24.64;36.93;92794.88;4939165;28;7269;-86
2022/04/07 08:00:15;;;;;;;;;;;;;;;24.71;36.61;92802.41;4954925;28;7346;-87
2022/04/07 08:02:44;;;;;;;;;;;;;;;24.72;36.96;92801.16;4957526;28;9064;-87
2022/04/07 08:05:12;;;;;;;;;;;;;;;24.65;36.77;92785.34;4940334;28;9031;-87
2022/04/07 08:07:46;;;;;;;;;;;;;;;24.76;36.31;92803.56;4932403;28;9078;-87
2022/04/07 08:10:15;;;;;;;;;;;;;;;24.75;36.89;92788.38;4940720;28;7268;-85
2022/04/07 08:12:45;;;;;;;;;;;;;;;24.74;36.43;92784.84;4942906;28;9041;-85
2022/04/07 08:15:20;;;;;;;;;;;;;;;24.75;37.11;92789.09;4936708;28;7275;-86
2022/04/07 08:17:49;;;;;;;;;;;;;;;24.75;36.50;92789.09;4937633;28;6871;-86
2022/04/07 08:20:15;;;;;;;;;;;;;;;24.73;36.40;92790.91;4952464;28;9063;-86
2022/04/07 08:22:41;;;;;;;;;;;;;;;24.70;36.74;92787.97;4954683;28;9025;-86
2022/04/07 08:25:09;;;;;;;;;;;;;;;24.77;37.09;92792.06;4938720;28;8975;-86
2022/04/07 08:27:36;;;;;;;;;;;;;;;24.79;37.02;92791.50;4935409;28;8708;-86
2022/04/07 08:30:08;;;;;;;;;;;;;;;24.79;37.13;92800.50;4944812;28;9105;-86
2022/04/07 08:32:36;;;;;;;;;;;;;;;24.78;37.01;92788.00;4935352;28;6869;-86
2022/04/07 08:35:09;;;;;;;;;;;;;;;24.81;36.69;92799.94;4934373;28;9297;-85
2022/04/07 08:37:48;;;;;;;;;;;;;;;24.79;36.78;92794.25;4951794;28;7033;-86
2022/04/07 08:40:21;;;;;;;;;;;;;;;24.81;36.85;92789.69;4937046;28;9095;-86
2022/04/07 08:43:07;;;;;;;;;;;;;;;24.81;36.69;92788.94;4945349;28;8765;-86
2022/04/07 08:45:39;;;;;;;;;;;;;;;24.80;37.47;92799.19;4948286;28;9084;-86
2022/04/07 08:48:11;;;;;;;;;;;;;;;24.81;37.11;92775.19;4941790;28;7270;-86
2022/04/07 08:50:44;;;;;;;;;;;;;;;24.80;37.19;92781.94;4937316;28;8802;-86
2022/04/07 08:53:13;;;;;;;;;;;;;;;24.80;36.70;92785.44;4951326;28;7248;-86
2022/04/07 08:55:39;;;;;;;;;;;;;;;24.80;36.91;92792.94;4937539;28;8719;-86
2022/04/07 08:58:10;;;;;;;;;;;;;;;24.81;37.00;92786.19;4937364;28;9188;-86
2022/04/07 09:00:40;;;;;;;;;;;;;;;24.80;36.77;92801.19;4957969;28;7273;-86
2022/04/07 09:03:14;;;;;;;;;;;;;;;24.79;37.13;92800.50;4927667;28;8751;-86
2022/04/07 09:06:03;;;;;;;;;;;;;;;24.80;37.11;92787.44;4951610;28;9108;-86
2022/04/07 09:08:34;;;;;;;;;;;;;;;24.80;36.99;92788.19;4957634;28;9437;-86
2022/04/07 09:11:02;;;;;;;;;;;;;;;24.81;37.16;92781.44;4960131;28;7010;-86
2022/04/07 09:13:34;;;;;;;;;;;;;;;24.80;36.92;92779.22;4935939;28;8699;-86
2022/04/07 09:16:12;;;;;;;;;;;;;;;24.77;36.84;92763.81;4955432;28;8654;-86
2022/04/07 09:18:42;;;;;;;;;;;;;;;24.79;36.64;92761.25;4940151;28;7220;-85
2022/04/07 09:21:23;;;;;;;;;;;;;;;24.81;36.62;92769.69;4940800;28;7041;-86
2022/04/07 09:23:56;;;;;;;;;;;;;;;24.79;36.88;92775.00;4947175;28;7840;-87
2022/04/07 09:26:26;;;;;;;;;;;;;;;24.79;36.90;92764.75;4947146;28;9001;-87
2022/04/07 09:28:57;;;;;;;;;;;;;;;24.80;36.44;92768.22;4944023;28;6870;-87
2022/04/07 09:31:25;;;;;;;;;;;;;;;24.70;35.99;92749.47;4959385;28;8764;-86
2022/04/07 09:34:30;;;;;;;;;;;;;;;24.78;35.95;92743.28;4940936;28;8986;-87
2022/04/07 09:37:13;;;;;;;;;;;;;;;24.73;36.42;92744.16;4915155;29;9219;-87
2022/04/07 09:39:51;;;;;;;;;;;;;;;24.74;35.79;92740.84;4936851;28;8769;-87
2022/04/07 09:42:29;;;;;;;;;;;;;;;24.75;36.67;92747.13;4920116;28;9042;-87
2022/04/07 09:45:13;;;;;;;;;;;;;;;24.76;36.23;92754.81;4930861;29;6860;-87
2022/04/07 09:47:49;;;;;;;;;;;;;;;24.77;36.61;92752.81;4934032;29;8766;-86
2022/04/07 09:50:29;;;;;;;;;;;;;;;24.79;36.65;92747.50;4920548;29;9025;-87
2022/04/07 09:52:56;;;;;;;;;;;;;;;24.78;36.73;92751.53;4916825;29;9182;-86
2022/04/07 09:55:29;;;;;;;;;;;;;;;24.80;36.06;92744.19;4918743;29;8222;-87
2022/04/07 09:57:58;;;;;;;;;;;;;;;24.80;36.70;92735.22;4914817;29;9161;-86
2022/04/07 10:00:56;;;;;;;;;;;;;;;24.81;36.38;92726.44;4934577;28;7615;-86
2022/04/07 10:03:24;;;;;;;;;;;;;;;24.81;36.85;92720.94;4872337;29;7026;-86
2022/04/07 10:06:05;;;;;;;;;;;;;;;24.80;36.75;92702.97;4862396;29;7577;-86
2022/04/07 10:08:37;;;;;;;;;;;;;;;24.81;36.63;92707.19;4876412;29;9065;-86
2022/04/07 10:11:05;;;;;;;;;;;;;;;24.76;36.70;92694.34;4861906;29;8999;-86
2022/04/07 10:13:38;;;;;;;;;;;;;;;24.80;37.20;92697.47;4875471;29;8765;-86
2022/04/07 10:16:22;;;;;;;;;;;;;;;24.80;37.18;92689.22;4896713;29;9093;-86
2022/04/07 10:19:04;;;;;;;;;;;;;;;24.82;37.23;92691.41;4883130;29;9084;-86
2022/04/07 10:22:01;;;;;;;;;;;;;;;24.83;36.71;92701.13;4895645;29;7179;-85
2022/04/07 10:24:30;;;;;;;;;;;;;;;24.84;37.15;92686.84;4892750;29;9012;-85
2022/04/07 10:27:00;;;;;;;;;;;;;;;24.86;37.49;92702.81;4896229;29;9118;-85
2022/04/07 10:29:28;;;;;;;;;;;;;;;24.87;37.56;92696.00;4878070;29;8622;-85
2022/04/07 10:32:14;;;;;;;;;;;;;;;24.84;37.77;92680.63;4897664;29;7328;-86
2022/04/07 10:34:54;;;;;;;;;;;;;;;24.84;37.73;92675.13;4881793;29;9021;-85
2022/04/07 10:37:33;;;;;;;;;;;;;;;24.84;37.63;92681.34;4881336;29;9179;-85
2022/04/07 10:40:38;;;;;;;;;;;;;;;24.83;37.74;92676.38;4915356;28;8780;-85
2022/04/07 10:43:17;;;;;;;;;;;;;;;24.83;37.53;92679.88;4952540;28;8436;-85
2022/04/07 10:46:10;;;;;;;;;;;;;;;24.84;38.04;92681.34;4935634;28;7002;-84
2022/04/07 10:49:03;;;;;;;;;;;;;;;24.85;37.62;92676.56;4899826;29;8843;-85
2022/04/07 10:51:57;;;;;;;;;;;;;;;24.86;37.75;92684.28;4929685;29;7078;-84
2022/04/07 10:54:33;;;;;;;;;;;;;;;24.88;38.41;92681.69;4902941;29;8944;-84
2022/04/07 10:57:01;;;;;;;;;;;;;;;24.87;37.50;92685.75;4910483;29;8683;-84
2022/04/07 10:59:32;;;;;;;;;;;;;;;24.90;37.98;92681.19;4910380;29;8770;-84
2022/04/07 11:02:05;;;;;;;;;;;;;;;24.89;37.59;92671.44;4905969;29;8915;-85
2022/04/07 11:04:32;;;;;;;;;;;;;;;24.84;37.26;92672.38;4911530;29;9048;-85
2022/04/07 11:07:10;;;;;;;;;;;;;;;24.87;37.93;92679.50;4895680;29;9185;-85
2022/04/07 11:10:13;;;;;;;;;;;;;;;24.87;37.00;92690.50;4913936;29;8620;-85
2022/04/07 11:13:03;;;;;;;;;;;;;;;24.85;37.22;92682.06;4863027;29;9124;-85
2022/04/07 11:15:37;;;;;;;;;;;;;;;24.83;37.62;92679.88;4849790;29;7039;-85
2022/04/07 11:18:27;;;;;;;;;;;;;;;24.89;37.10;92693.44;4857957;29;9369;-85
2022/04/07 11:21:08;;;;;;;;;;;;;;;24.84;36.84;92680.63;4856878;29;7581;-85
2022/04/07 11:23:56;;;;;;;;;;;;;;;24.82;36.86;92685.91;4836790;29;8590;-85
2022/04/07 11:26:26;;;;;;;;;;;;;;;24.80;37.40;92680.22;4839166;29;8835;-85
2022/04/07 11:29:10;;;;;;;;;;;;;;;24.78;37.04;92682.78;4848381;29;7270;-86
2022/04/07 11:32:09;;;;;;;;;;;;;;;24.78;36.93;92693.78;4843162;29;8757;-85
2022/04/07 11:35:11;;;;;;;;;;;;;;;24.76;37.60;92690.84;4844396;29;7037;-86
2022/04/07 11:37:41;;;;;;;;;;;;;;;24.74;37.55;92688.63;4857013;29;8046;-86
2022/04/07 11:40:09;;;;;;;;;;;;;;;24.74;36.99;92685.88;4858906;29;7358;-86
2022/04/07 11:42:39;;;;;;;;;;;;;;;24.76;36.69;92668.84;4841995;29;9029;-85
2022/04/07 11:45:05;;;;;;;;;;;;;;;24.73;36.94;92665.88;4843808;29;9038;-85
2022/04/07 11:47:39;;;;;;;;;;;;;;;24.73;37.54;92660.38;4943068;28;8921;-85
2022/04/07 11:50:09;;;;;;;;;;;;;;;24.73;37.06;92663.13;4938633;28;8837;-85
2022/04/07 11:52:41;;;;;;;;;;;;;;;24.73;37.52;92664.44;4939400;28;9014;-86
2022/04/07 11:55:09;;;;;;;;;;;;;;;24.76;37.71;92660.59;4952704;28;7949;-86
2022/04/07 11:57:42;;;;;;;;;;;;;;;24.76;37.23;92666.09;4938002;28;8673;-85
2022/04/07 12:00:10;;;;;;;;;;;;;;;24.73;37.53;92659.66;4935478;28;9091;-85
2022/04/07 12:02:40;;;;;;;;;;;;;;;24.77;36.94;92664.84;4949910;28;9078;-85
2022/04/07 12:05:06;;;;;;;;;;;;;;;24.73;37.51;92664.44;4954472;28;8937;-85
2022/04/07 12:08:04;;;;;;;;;;;;;;;24.76;37.39;92677.09;4956102;28;6995;-85
2022/04/07 12:11:07;;;;;;;;;;;;;;;24.78;37.66;92677.28;4952058;28;9102;-85
2022/04/07 12:13:49;;;;;;;;;;;;;;;24.77;37.68;92678.56;4921768;29;7278;-85
2022/04/07 12:16:30;;;;;;;;;;;;;;;24.76;37.60;92664.09;4931687;29;9051;-85
2022/04/07 12:19:05;;;;;;;;;;;;;;;24.76;37.61;92666.09;4928970;29;9111;-85
2022/04/07 12:21:54;;;;;;;;;;;;;;;24.75;37.76;92661.91;4930907;28;9012;-85
2022/04/07 12:24:20;;;;;;;;;;;;;;;24.77;38.06;92662.09;4927249;29;7263;-85
2022/04/07 12:26:53;;;;;;;;;;;;;;;24.77;37.42;92670.34;4930484;29;8984;-85
2022/04/07 12:29:22;;;;;;;;;;;;;;;24.75;38.03;92670.16;4934927;28;9119;-85
2022/04/07 12:32:02;;;;;;;;;;;;;;;24.73;37.52;92665.16;4927970;28;8797;-86
2022/04/07 12:34:50;;;;;;;;;;;;;;;24.76;37.57;92668.84;4934533;28;9125;-86
2022/04/07 12:37:37;;;;;;;;;;;;;;;24.77;37.65;92678.56;4935156;28;7278;-85
2022/04/07 12:40:25;;;;;;;;;;;;;;;24.78;37.10;92667.03;4931869;28;7260;-86
2022/04/07 12:42:59;;;;;;;;;;;;;;;24.77;37.62;92675.81;4923175;29;7002;-85
2022/04/07 12:45:28;;;;;;;;;;;;;;;24.79;37.24;92679.50;4929729;29;7075;-86
2022/04/07 12:48:17;;;;;;;;;;;;;;;24.77;38.38;92670.34;4945469;28;7498;-86
2022/04/07 12:50:48;;;;;;;;;;;;;;;24.71;38.44;92673.94;4951288;28;9369;-86
2022/04/07 12:53:37;;;;;;;;;;;;;;;24.72;38.10;92669.19;4932003;28;7221;-85
2022/04/07 12:56:27;;;;;;;;;;;;;;;24.71;38.58;92651.94;4950383;28;9829;-85
2022/04/07 12:59:01;;;;;;;;;;;;;;;24.75;37.66;92637.88;4956638;28;7524;-85
2022/04/07 13:01:54;;;;;;;;;;;;;;;24.78;37.97;92645.03;4933830;28;8442;-85
2022/04/07 13:04:46;;;;;;;;;;;;;;;24.81;38.63;92641.19;4921933;29;9155;-85
2022/04/07 13:07:21;;;;;;;;;;;;;;;24.82;37.95;92645.41;4921816;29;9080;-85
2022/04/07 13:09:49;;;;;;;;;;;;;;;24.79;38.60;92627.25;4933277;29;7026;-85
2022/04/07 13:12:16;;;;;;;;;;;;;;;24.82;38.36;92639.91;4917070;29;9309;-85
2022/04/07 13:14:51;;;;;;;;;;;;;;;24.84;38.21;92647.63;4915698;29;9120;-85
2022/04/07 13:17:47;;;;;;;;;;;;;;;24.87;38.44;92654.75;4915022;29;9254;-85
2022/04/07 13:20:15;;;;;;;;;;;;;;;24.84;38.12;92645.59;4895258;29;9383;-86
2022/04/07 13:22:41;;;;;;;;;;;;;;;24.87;38.09;92657.50;4879206;29;9393;-85
2022/04/07 13:25:07;;;;;;;;;;;;;;;24.90;38.00;92659.91;4887773;29;6896;-85
2022/04/07 13:27:33;;;;;;;;;;;;;;;24.89;37.77;92654.94;4890362;29;8760;-85
2022/04/07 13:29:59;;;;;;;;;;;;;;;24.90;37.81;92690.16;4896371;29;7850;-85